sensor_id;sensor_type;location;lat;lon;timestamp;P1;durP1;ratioP1;P2;durP2;ratioP2
15171;SDS011;7686;52.184;9.280;2023-01-08T00:01:09;0.95;;;0.80;;
15171;SDS011;7686;52.184;9.280;2023-01-08T00:03:38;0.63;;;0.63;;
15171;SDS011;7686;52.184;9.280;2023-01-08T00:06:07;0.70;;;0.70;;
15171;SDS011;7686;52.184;9.280;2023-01-08T00:08:36;1.20;;;0.80;;
15171;SDS011;7686;52.184;9.280;2023-01-08T00:11:03;1.13;;;0.73;;
15171;SDS011;7686;52.184;9.280;2023-01-08T00:13:30;0.88;;;0.80;;
15171;SDS011;7686;52.184;9.280;2023-01-08T00:15:56;0.90;;;0.70;;
15171;SDS011;7686;52.184;9.280;2023-01-08T00:18:28;0.93;;;0.70;;
15171;SDS011;7686;52.184;9.280;2023-01-08T00:20:54;2.22;;;0.93;;
15171;SDS011;7686;52.184;9.280;2023-01-08T00:23:21;1.48;;;0.60;;
15171;SDS011;7686;52.184;9.280;2023-01-08T00:25:48;0.70;;;0.70;;
15171;SDS011;7686;52.184;9.280;2023-01-08T00:28:15;0.80;;;0.80;;
15171;SDS011;7686;52.184;9.280;2023-01-08T00:30:42;1.15;;;0.77;;
15171;SDS011;7686;52.184;9.280;2023-01-08T00:33:09;0.85;;;0.60;;
15171;SDS011;7686;52.184;9.280;2023-01-08T00:35:36;1.63;;;0.80;;
15171;SDS011;7686;52.184;9.280;2023-01-08T00:38:04;0.70;;;0.70;;
15171;SDS011;7686;52.184;9.280;2023-01-08T00:40:32;0.55;;;0.55;;
15171;SDS011;7686;52.184;9.280;2023-01-08T00:42:59;1.05;;;0.80;;
15171;SDS011;7686;52.184;9.280;2023-01-08T00:45:26;1.48;;;0.70;;
15171;SDS011;7686;52.184;9.280;2023-01-08T00:47:53;1.17;;;0.80;;
15171;SDS011;7686;52.184;9.280;2023-01-08T00:50:19;1.42;;;0.70;;
15171;SDS011;7686;52.184;9.280;2023-01-08T00:52:46;0.60;;;0.60;;
15171;SDS011;7686;52.184;9.280;2023-01-08T00:55:13;0.90;;;0.80;;
15171;SDS011;7686;52.184;9.280;2023-01-08T00:57:39;1.13;;;0.82;;
15171;SDS011;7686;52.184;9.280;2023-01-08T01:00:07;1.13;;;0.80;;
15171;SDS011;7686;52.184;9.280;2023-01-08T01:02:36;0.70;;;0.70;;
15171;SDS011;7686;52.184;9.280;2023-01-08T01:05:04;1.83;;;0.80;;
15171;SDS011;7686;52.184;9.280;2023-01-08T01:07:32;0.90;;;0.70;;
15171;SDS011;7686;52.184;9.280;2023-01-08T01:09:59;0.80;;;0.70;;
15171;SDS011;7686;52.184;9.280;2023-01-08T01:12:26;0.82;;;0.70;;
15171;SDS011;7686;52.184;9.280;2023-01-08T01:14:53;0.70;;;0.70;;
15171;SDS011;7686;52.184;9.280;2023-01-08T01:17:20;0.60;;;0.60;;
15171;SDS011;7686;52.184;9.280;2023-01-08T01:19:46;0.60;;;0.60;;
15171;SDS011;7686;52.184;9.280;2023-01-08T01:22:13;1.02;;;0.77;;
15171;SDS011;7686;52.184;9.280;2023-01-08T01:24:40;2.25;;;0.80;;
15171;SDS011;7686;52.184;9.280;2023-01-08T01:27:06;1.10;;;0.80;;
15171;SDS011;7686;52.184;9.280;2023-01-08T01:29:33;0.60;;;0.60;;
15171;SDS011;7686;52.184;9.280;2023-01-08T01:31:59;1.15;;;0.70;;
15171;SDS011;7686;52.184;9.280;2023-01-08T01:34:26;0.70;;;0.70;;
15171;SDS011;7686;52.184;9.280;2023-01-08T01:36:53;0.70;;;0.70;;
15171;SDS011;7686;52.184;9.280;2023-01-08T01:39:19;1.00;;;0.85;;
15171;SDS011;7686;52.184;9.280;2023-01-08T01:41:46;2.08;;;0.85;;
15171;SDS011;7686;52.184;9.280;2023-01-08T01:44:33;0.90;;;0.70;;
15171;SDS011;7686;52.184;9.280;2023-01-08T01:47:02;1.25;;;0.60;;
15171;SDS011;7686;52.184;9.280;2023-01-08T01:49:35;1.05;;;0.77;;
15171;SDS011;7686;52.184;9.280;2023-01-08T01:52:04;0.80;;;0.75;;
15171;SDS011;7686;52.184;9.280;2023-01-08T01:54:33;0.95;;;0.70;;
15171;SDS011;7686;52.184;9.280;2023-01-08T01:57:01;0.75;;;0.75;;
15171;SDS011;7686;52.184;9.280;2023-01-08T01:59:29;1.00;;;0.80;;
15171;SDS011;7686;52.184;9.280;2023-01-08T02:01:56;0.80;;;0.75;;
15171;SDS011;7686;52.184;9.280;2023-01-08T02:04:23;0.80;;;0.70;;
15171;SDS011;7686;52.184;9.280;2023-01-08T02:12:09;1.33;;;0.70;;
15171;SDS011;7686;52.184;9.280;2023-01-08T02:14:48;0.70;;;0.70;;
15171;SDS011;7686;52.184;9.280;2023-01-08T02:17:21;0.75;;;0.70;;
15171;SDS011;7686;52.184;9.280;2023-01-08T02:19:56;0.73;;;0.70;;
15171;SDS011;7686;52.184;9.280;2023-01-08T02:22:41;0.70;;;0.70;;
15171;SDS011;7686;52.184;9.280;2023-01-08T02:25:29;1.10;;;0.70;;
15171;SDS011;7686;52.184;9.280;2023-01-08T02:28:03;0.70;;;0.70;;
15171;SDS011;7686;52.184;9.280;2023-01-08T02:30:34;1.45;;;0.60;;
15171;SDS011;7686;52.184;9.280;2023-01-08T02:33:01;0.82;;;0.70;;
15171;SDS011;7686;52.184;9.280;2023-01-08T02:35:38;0.90;;;0.70;;
15171;SDS011;7686;52.184;9.280;2023-01-08T02:38:08;0.65;;;0.60;;
15171;SDS011;7686;52.184;9.280;2023-01-08T02:40:46;0.70;;;0.70;;
15171;SDS011;7686;52.184;9.280;2023-01-08T02:43:25;0.82;;;0.70;;
15171;SDS011;7686;52.184;9.280;2023-01-08T02:46:00;1.40;;;0.80;;
15171;SDS011;7686;52.184;9.280;2023-01-08T02:51:21;1.15;;;0.80;;
15171;SDS011;7686;52.184;9.280;2023-01-08T02:54:04;0.60;;;0.60;;
15171;SDS011;7686;52.184;9.280;2023-01-08T02:56:35;0.65;;;0.65;;
15171;SDS011;7686;52.184;9.280;2023-01-08T02:59:04;0.75;;;0.63;;
15171;SDS011;7686;52.184;9.280;2023-01-08T03:01:33;1.08;;;0.70;;
15171;SDS011;7686;52.184;9.280;2023-01-08T03:04:02;0.60;;;0.60;;
15171;SDS011;7686;52.184;9.280;2023-01-08T03:06:32;0.70;;;0.70;;
15171;SDS011;7686;52.184;9.280;2023-01-08T03:08:59;0.63;;;0.63;;
15171;SDS011;7686;52.184;9.280;2023-01-08T03:11:28;0.60;;;0.60;;
15171;SDS011;7686;52.184;9.280;2023-01-08T03:14:06;0.65;;;0.65;;
15171;SDS011;7686;52.184;9.280;2023-01-08T03:16:44;2.33;;;0.70;;
15171;SDS011;7686;52.184;9.280;2023-01-08T03:19:15;0.70;;;0.70;;
15171;SDS011;7686;52.184;9.280;2023-01-08T03:21:47;0.70;;;0.70;;
15171;SDS011;7686;52.184;9.280;2023-01-08T03:24:21;0.75;;;0.75;;
15171;SDS011;7686;52.184;9.280;2023-01-08T03:26:54;0.70;;;0.70;;
15171;SDS011;7686;52.184;9.280;2023-01-08T03:29:23;0.63;;;0.63;;
15171;SDS011;7686;52.184;9.280;2023-01-08T03:31:52;1.35;;;0.80;;
15171;SDS011;7686;52.184;9.280;2023-01-08T03:34:23;0.75;;;0.75;;
15171;SDS011;7686;52.184;9.280;2023-01-08T03:36:52;0.70;;;0.70;;
15171;SDS011;7686;52.184;9.280;2023-01-08T03:39:30;0.60;;;0.60;;
15171;SDS011;7686;52.184;9.280;2023-01-08T03:41:59;0.60;;;0.60;;
15171;SDS011;7686;52.184;9.280;2023-01-08T03:44:31;1.33;;;0.73;;
15171;SDS011;7686;52.184;9.280;2023-01-08T03:46:58;0.75;;;0.70;;
15171;SDS011;7686;52.184;9.280;2023-01-08T03:49:25;0.70;;;0.70;;
15171;SDS011;7686;52.184;9.280;2023-01-08T03:51:53;0.70;;;0.70;;
15171;SDS011;7686;52.184;9.280;2023-01-08T03:54:24;0.80;;;0.70;;
15171;SDS011;7686;52.184;9.280;2023-01-08T03:56:55;0.60;;;0.60;;
15171;SDS011;7686;52.184;9.280;2023-01-08T03:59:22;0.52;;;0.52;;
15171;SDS011;7686;52.184;9.280;2023-01-08T04:01:49;0.80;;;0.70;;
15171;SDS011;7686;52.184;9.280;2023-01-08T04:04:16;0.60;;;0.60;;
15171;SDS011;7686;52.184;9.280;2023-01-08T04:06:43;1.23;;;0.85;;
15171;SDS011;7686;52.184;9.280;2023-01-08T04:09:09;1.02;;;0.70;;
15171;SDS011;7686;52.184;9.280;2023-01-08T04:11:36;0.88;;;0.60;;
15171;SDS011;7686;52.184;9.280;2023-01-08T04:14:03;0.95;;;0.80;;
15171;SDS011;7686;52.184;9.280;2023-01-08T04:16:29;0.70;;;0.70;;
15171;SDS011;7686;52.184;9.280;2023-01-08T04:18:56;0.63;;;0.63;;
15171;SDS011;7686;52.184;9.280;2023-01-08T04:21:23;0.70;;;0.70;;
15171;SDS011;7686;52.184;9.280;2023-01-08T04:23:50;0.65;;;0.65;;
15171;SDS011;7686;52.184;9.280;2023-01-08T04:26:16;0.85;;;0.68;;
15171;SDS011;7686;52.184;9.280;2023-01-08T04:28:43;0.60;;;0.60;;
15171;SDS011;7686;52.184;9.280;2023-01-08T04:31:10;1.08;;;0.80;;
15171;SDS011;7686;52.184;9.280;2023-01-08T04:33:36;1.10;;;0.90;;
15171;SDS011;7686;52.184;9.280;2023-01-08T04:36:03;0.57;;;0.57;;
15171;SDS011;7686;52.184;9.280;2023-01-08T04:38:30;0.82;;;0.75;;
15171;SDS011;7686;52.184;9.280;2023-01-08T04:40:58;0.65;;;0.63;;
15171;SDS011;7686;52.184;9.280;2023-01-08T04:43:25;0.80;;;0.70;;
15171;SDS011;7686;52.184;9.280;2023-01-08T04:45:57;0.95;;;0.70;;
15171;SDS011;7686;52.184;9.280;2023-01-08T04:48:24;0.60;;;0.60;;
15171;SDS011;7686;52.184;9.280;2023-01-08T04:50:51;0.55;;;0.55;;
15171;SDS011;7686;52.184;9.280;2023-01-08T04:53:18;0.60;;;0.60;;
15171;SDS011;7686;52.184;9.280;2023-01-08T04:55:45;0.65;;;0.65;;
15171;SDS011;7686;52.184;9.280;2023-01-08T04:58:11;0.60;;;0.60;;
15171;SDS011;7686;52.184;9.280;2023-01-08T05:00:38;0.90;;;0.75;;
15171;SDS011;7686;52.184;9.280;2023-01-08T05:03:05;0.60;;;0.60;;
15171;SDS011;7686;52.184;9.280;2023-01-08T05:05:32;0.60;;;0.60;;
15171;SDS011;7686;52.184;9.280;2023-01-08T05:07:59;0.70;;;0.70;;
15171;SDS011;7686;52.184;9.280;2023-01-08T05:10:26;0.60;;;0.60;;
15171;SDS011;7686;52.184;9.280;2023-01-08T05:12:57;0.60;;;0.60;;
15171;SDS011;7686;52.184;9.280;2023-01-08T05:15:24;0.98;;;0.80;;
15171;SDS011;7686;52.184;9.280;2023-01-08T05:18:01;0.57;;;0.57;;
15171;SDS011;7686;52.184;9.280;2023-01-08T05:20:30;0.63;;;0.60;;
15171;SDS011;7686;52.184;9.280;2023-01-08T05:22:57;0.85;;;0.68;;
15171;SDS011;7686;52.184;9.280;2023-01-08T05:25:24;0.88;;;0.70;;
15171;SDS011;7686;52.184;9.280;2023-01-08T05:27:51;0.82;;;0.70;;
15171;SDS011;7686;52.184;9.280;2023-01-08T05:30:18;0.98;;;0.75;;
15171;SDS011;7686;52.184;9.280;2023-01-08T05:32:45;0.70;;;0.70;;
15171;SDS011;7686;52.184;9.280;2023-01-08T05:35:11;0.60;;;0.60;;
15171;SDS011;7686;52.184;9.280;2023-01-08T05:37:38;0.50;;;0.50;;
15171;SDS011;7686;52.184;9.280;2023-01-08T05:40:05;0.57;;;0.57;;
15171;SDS011;7686;52.184;9.280;2023-01-08T05:42:32;0.50;;;0.50;;
15171;SDS011;7686;52.184;9.280;2023-01-08T05:45:01;0.55;;;0.55;;
15171;SDS011;7686;52.184;9.280;2023-01-08T05:47:32;0.60;;;0.60;;
15171;SDS011;7686;52.184;9.280;2023-01-08T05:49:59;0.60;;;0.50;;
15171;SDS011;7686;52.184;9.280;2023-01-08T05:52:26;0.60;;;0.52;;
15171;SDS011;7686;52.184;9.280;2023-01-08T05:54:52;0.50;;;0.50;;
15171;SDS011;7686;52.184;9.280;2023-01-08T05:57:19;0.65;;;0.60;;
15171;SDS011;7686;52.184;9.280;2023-01-08T05:59:46;0.70;;;0.63;;
15171;SDS011;7686;52.184;9.280;2023-01-08T06:02:12;1.10;;;0.73;;
15171;SDS011;7686;52.184;9.280;2023-01-08T06:04:39;1.02;;;0.70;;
15171;SDS011;7686;52.184;9.280;2023-01-08T06:07:06;0.70;;;0.60;;
15171;SDS011;7686;52.184;9.280;2023-01-08T06:09:32;1.00;;;0.80;;
15171;SDS011;7686;52.184;9.280;2023-01-08T06:11:59;0.77;;;0.70;;
15171;SDS011;7686;52.184;9.280;2023-01-08T06:14:26;0.73;;;0.67;;
15171;SDS011;7686;52.184;9.280;2023-01-08T06:16:52;0.60;;;0.60;;
15171;SDS011;7686;52.184;9.280;2023-01-08T06:19:19;0.63;;;0.63;;
15171;SDS011;7686;52.184;9.280;2023-01-08T06:21:46;0.50;;;0.50;;
15171;SDS011;7686;52.184;9.280;2023-01-08T06:24:12;0.53;;;0.53;;
15171;SDS011;7686;52.184;9.280;2023-01-08T06:26:39;0.60;;;0.60;;
15171;SDS011;7686;52.184;9.280;2023-01-08T06:29:05;0.70;;;0.50;;
15171;SDS011;7686;52.184;9.280;2023-01-08T06:31:32;0.57;;;0.57;;
15171;SDS011;7686;52.184;9.280;2023-01-08T06:33:59;0.60;;;0.60;;
15171;SDS011;7686;52.184;9.280;2023-01-08T06:36:26;0.90;;;0.50;;
15171;SDS011;7686;52.184;9.280;2023-01-08T06:38:53;0.63;;;0.60;;
15171;SDS011;7686;52.184;9.280;2023-01-08T06:41:20;0.55;;;0.55;;
15171;SDS011;7686;52.184;9.280;2023-01-08T06:43:47;0.60;;;0.50;;
15171;SDS011;7686;52.184;9.280;2023-01-08T06:46:14;0.50;;;0.50;;
15171;SDS011;7686;52.184;9.280;2023-01-08T06:48:40;0.60;;;0.50;;
15171;SDS011;7686;52.184;9.280;2023-01-08T06:51:07;0.50;;;0.50;;
15171;SDS011;7686;52.184;9.280;2023-01-08T06:53:34;0.80;;;0.70;;
15171;SDS011;7686;52.184;9.280;2023-01-08T06:56:01;0.95;;;0.50;;
15171;SDS011;7686;52.184;9.280;2023-01-08T06:58:28;0.45;;;0.45;;
15171;SDS011;7686;52.184;9.280;2023-01-08T07:00:55;0.60;;;0.60;;
15171;SDS011;7686;52.184;9.280;2023-01-08T07:03:24;0.60;;;0.60;;
15171;SDS011;7686;52.184;9.280;2023-01-08T07:05:51;0.50;;;0.50;;
15171;SDS011;7686;52.184;9.280;2023-01-08T07:08:18;0.60;;;0.60;;
15171;SDS011;7686;52.184;9.280;2023-01-08T07:10:44;0.65;;;0.60;;
15171;SDS011;7686;52.184;9.280;2023-01-08T07:13:11;0.80;;;0.52;;
15171;SDS011;7686;52.184;9.280;2023-01-08T07:15:38;1.30;;;0.50;;
15171;SDS011;7686;52.184;9.280;2023-01-08T07:18:06;0.50;;;0.50;;
15171;SDS011;7686;52.184;9.280;2023-01-08T07:20:34;0.57;;;0.57;;
15171;SDS011;7686;52.184;9.280;2023-01-08T07:23:01;0.73;;;0.60;;
15171;SDS011;7686;52.184;9.280;2023-01-08T07:25:32;0.82;;;0.60;;
15171;SDS011;7686;52.184;9.280;2023-01-08T07:27:59;0.63;;;0.60;;
15171;SDS011;7686;52.184;9.280;2023-01-08T07:30:27;0.63;;;0.50;;
15171;SDS011;7686;52.184;9.280;2023-01-08T07:32:59;1.73;;;0.68;;
15171;SDS011;7686;52.184;9.280;2023-01-08T07:35:26;0.60;;;0.60;;
15171;SDS011;7686;52.184;9.280;2023-01-08T07:37:53;0.52;;;0.52;;
15171;SDS011;7686;52.184;9.280;2023-01-08T07:40:20;0.57;;;0.57;;
15171;SDS011;7686;52.184;9.280;2023-01-08T07:42:47;1.40;;;0.70;;
15171;SDS011;7686;52.184;9.280;2023-01-08T07:45:14;0.93;;;0.60;;
15171;SDS011;7686;52.184;9.280;2023-01-08T07:47:40;0.82;;;0.70;;
15171;SDS011;7686;52.184;9.280;2023-01-08T07:50:07;0.43;;;0.43;;
15171;SDS011;7686;52.184;9.280;2023-01-08T07:52:34;0.90;;;0.65;;
15171;SDS011;7686;52.184;9.280;2023-01-08T07:55:00;2.05;;;0.82;;
15171;SDS011;7686;52.184;9.280;2023-01-08T07:57:28;0.68;;;0.50;;
15171;SDS011;7686;52.184;9.280;2023-01-08T07:59:54;4.50;;;0.70;;
15171;SDS011;7686;52.184;9.280;2023-01-08T08:02:21;1.77;;;0.70;;
15171;SDS011;7686;52.184;9.280;2023-01-08T08:04:48;3.10;;;0.70;;
15171;SDS011;7686;52.184;9.280;2023-01-08T08:07:14;1.15;;;0.75;;
15171;SDS011;7686;52.184;9.280;2023-01-08T08:09:41;0.93;;;0.45;;
15171;SDS011;7686;52.184;9.280;2023-01-08T08:12:08;1.08;;;0.63;;
15171;SDS011;7686;52.184;9.280;2023-01-08T08:14:34;2.75;;;0.70;;
15171;SDS011;7686;52.184;9.280;2023-01-08T08:17:01;1.67;;;0.50;;
15171;SDS011;7686;52.184;9.280;2023-01-08T08:19:28;0.80;;;0.60;;
15171;SDS011;7686;52.184;9.280;2023-01-08T08:21:54;1.98;;;0.60;;
15171;SDS011;7686;52.184;9.280;2023-01-08T08:24:21;0.60;;;0.60;;
15171;SDS011;7686;52.184;9.280;2023-01-08T08:26:47;1.27;;;0.57;;
15171;SDS011;7686;52.184;9.280;2023-01-08T08:29:15;2.03;;;0.60;;
15171;SDS011;7686;52.184;9.280;2023-01-08T08:31:42;2.30;;;0.68;;
15171;SDS011;7686;52.184;9.280;2023-01-08T08:34:09;2.72;;;0.60;;
15171;SDS011;7686;52.184;9.280;2023-01-08T08:36:35;2.80;;;0.90;;
15171;SDS011;7686;52.184;9.280;2023-01-08T08:39:02;2.33;;;1.05;;
15171;SDS011;7686;52.184;9.280;2023-01-08T08:41:29;3.72;;;1.63;;
15171;SDS011;7686;52.184;9.280;2023-01-08T08:43:55;4.22;;;1.98;;
15171;SDS011;7686;52.184;9.280;2023-01-08T08:46:22;4.78;;;2.35;;
15171;SDS011;7686;52.184;9.280;2023-01-08T08:48:50;4.38;;;2.35;;
15171;SDS011;7686;52.184;9.280;2023-01-08T08:51:17;5.25;;;2.50;;
15171;SDS011;7686;52.184;9.280;2023-01-08T08:53:43;4.95;;;2.10;;
15171;SDS011;7686;52.184;9.280;2023-01-08T08:56:10;4.00;;;2.20;;
15171;SDS011;7686;52.184;9.280;2023-01-08T08:58:37;4.47;;;2.35;;
15171;SDS011;7686;52.184;9.280;2023-01-08T09:01:06;6.22;;;3.08;;
15171;SDS011;7686;52.184;9.280;2023-01-08T09:03:33;5.32;;;3.38;;
15171;SDS011;7686;52.184;9.280;2023-01-08T09:06:00;5.05;;;2.97;;
15171;SDS011;7686;52.184;9.280;2023-01-08T09:08:27;7.60;;;3.67;;
15171;SDS011;7686;52.184;9.280;2023-01-08T09:10:54;5.70;;;3.42;;
15171;SDS011;7686;52.184;9.280;2023-01-08T09:13:21;6.50;;;3.20;;
15171;SDS011;7686;52.184;9.280;2023-01-08T09:15:47;4.93;;;3.13;;
15171;SDS011;7686;52.184;9.280;2023-01-08T09:18:14;5.93;;;3.80;;
15171;SDS011;7686;52.184;9.280;2023-01-08T09:20:41;7.68;;;3.70;;
15171;SDS011;7686;52.184;9.280;2023-01-08T09:23:08;7.18;;;3.67;;
15171;SDS011;7686;52.184;9.280;2023-01-08T09:25:34;6.90;;;3.60;;
15171;SDS011;7686;52.184;9.280;2023-01-08T09:28:02;5.88;;;3.35;;
15171;SDS011;7686;52.184;9.280;2023-01-08T09:30:31;6.25;;;3.42;;
15171;SDS011;7686;52.184;9.280;2023-01-08T09:32:59;5.72;;;3.22;;
15171;SDS011;7686;52.184;9.280;2023-01-08T09:35:28;4.47;;;3.05;;
15171;SDS011;7686;52.184;9.280;2023-01-08T09:37:55;5.40;;;2.90;;
15171;SDS011;7686;52.184;9.280;2023-01-08T09:40:23;6.75;;;3.42;;
15171;SDS011;7686;52.184;9.280;2023-01-08T09:42:56;4.88;;;2.92;;
15171;SDS011;7686;52.184;9.280;2023-01-08T09:45:26;7.28;;;3.22;;
15171;SDS011;7686;52.184;9.280;2023-01-08T09:47:55;6.25;;;2.95;;
15171;SDS011;7686;52.184;9.280;2023-01-08T09:50:26;5.18;;;2.85;;
15171;SDS011;7686;52.184;9.280;2023-01-08T09:52:54;5.90;;;3.10;;
15171;SDS011;7686;52.184;9.280;2023-01-08T09:55:21;4.70;;;2.63;;
15171;SDS011;7686;52.184;9.280;2023-01-08T09:57:48;5.40;;;2.92;;
15171;SDS011;7686;52.184;9.280;2023-01-08T10:00:17;5.07;;;2.88;;
15171;SDS011;7686;52.184;9.280;2023-01-08T10:02:54;3.75;;;2.30;;
15171;SDS011;7686;52.184;9.280;2023-01-08T10:05:24;6.15;;;3.08;;
15171;SDS011;7686;52.184;9.280;2023-01-08T10:07:53;4.70;;;2.60;;
15171;SDS011;7686;52.184;9.280;2023-01-08T10:10:21;4.57;;;2.78;;
15171;SDS011;7686;52.184;9.280;2023-01-08T10:12:52;4.65;;;2.65;;
15171;SDS011;7686;52.184;9.280;2023-01-08T10:15:19;4.93;;;2.55;;
15171;SDS011;7686;52.184;9.280;2023-01-08T10:17:48;5.60;;;2.75;;
15171;SDS011;7686;52.184;9.280;2023-01-08T10:20:25;5.07;;;2.40;;
15171;SDS011;7686;52.184;9.280;2023-01-08T10:22:52;4.43;;;2.40;;
15171;SDS011;7686;52.184;9.280;2023-01-08T10:25:20;4.68;;;2.33;;
15171;SDS011;7686;52.184;9.280;2023-01-08T10:27:56;5.72;;;2.50;;
15171;SDS011;7686;52.184;9.280;2023-01-08T10:30:32;4.35;;;2.47;;
15171;SDS011;7686;52.184;9.280;2023-01-08T10:33:02;4.90;;;2.30;;
15171;SDS011;7686;52.184;9.280;2023-01-08T10:35:37;3.72;;;2.03;;
15171;SDS011;7686;52.184;9.280;2023-01-08T10:38:05;4.25;;;2.20;;
15171;SDS011;7686;52.184;9.280;2023-01-08T10:40:39;4.60;;;2.33;;
15171;SDS011;7686;52.184;9.280;2023-01-08T10:43:20;3.63;;;2.08;;
15171;SDS011;7686;52.184;9.280;2023-01-08T10:45:55;3.80;;;2.08;;
15171;SDS011;7686;52.184;9.280;2023-01-08T10:48:32;4.32;;;2.30;;
15171;SDS011;7686;52.184;9.280;2023-01-08T10:51:18;3.92;;;2.10;;
15171;SDS011;7686;52.184;9.280;2023-01-08T10:53:49;3.28;;;1.90;;
15171;SDS011;7686;52.184;9.280;2023-01-08T10:56:17;3.70;;;2.03;;
15171;SDS011;7686;52.184;9.280;2023-01-08T10:58:52;3.30;;;1.90;;
15171;SDS011;7686;52.184;9.280;2023-01-08T11:01:21;3.72;;;2.00;;
15171;SDS011;7686;52.184;9.280;2023-01-08T11:03:51;4.35;;;2.25;;
15171;SDS011;7686;52.184;9.280;2023-01-08T11:06:25;4.88;;;2.38;;
15171;SDS011;7686;52.184;9.280;2023-01-08T11:08:56;4.28;;;1.92;;
15171;SDS011;7686;52.184;9.280;2023-01-08T11:11:31;3.00;;;1.77;;
15171;SDS011;7686;52.184;9.280;2023-01-08T11:14:02;4.78;;;2.00;;
15171;SDS011;7686;52.184;9.280;2023-01-08T11:16:46;4.65;;;2.20;;
15171;SDS011;7686;52.184;9.280;2023-01-08T11:19:27;4.30;;;2.25;;
15171;SDS011;7686;52.184;9.280;2023-01-08T11:21:56;4.80;;;2.15;;
15171;SDS011;7686;52.184;9.280;2023-01-08T11:27:02;4.60;;;1.90;;
15171;SDS011;7686;52.184;9.280;2023-01-08T11:35:19;3.85;;;1.85;;
15171;SDS011;7686;52.184;9.280;2023-01-08T11:37:51;3.97;;;1.90;;
15171;SDS011;7686;52.184;9.280;2023-01-08T11:48:47;3.47;;;1.80;;
15171;SDS011;7686;52.184;9.280;2023-01-08T11:51:42;2.67;;;1.58;;
15171;SDS011;7686;52.184;9.280;2023-01-08T11:54:27;3.58;;;1.80;;
15171;SDS011;7686;52.184;9.280;2023-01-08T11:57:12;3.97;;;1.90;;
15171;SDS011;7686;52.184;9.280;2023-01-08T12:02:43;2.70;;;1.55;;
15171;SDS011;7686;52.184;9.280;2023-01-08T12:13:00;3.92;;;1.77;;
15171;SDS011;7686;52.184;9.280;2023-01-08T12:15:41;4.32;;;1.70;;
15171;SDS011;7686;52.184;9.280;2023-01-08T12:20:57;3.22;;;1.58;;
15171;SDS011;7686;52.184;9.280;2023-01-08T12:26:18;5.10;;;1.73;;
15171;SDS011;7686;52.184;9.280;2023-01-08T12:37:51;2.17;;;1.30;;
15171;SDS011;7686;52.184;9.280;2023-01-08T12:43:30;3.78;;;1.50;;
15171;SDS011;7686;52.184;9.280;2023-01-08T12:46:06;2.55;;;1.45;;
15171;SDS011;7686;52.184;9.280;2023-01-08T12:48:38;2.38;;;1.42;;
15171;SDS011;7686;52.184;9.280;2023-01-08T12:51:09;2.67;;;1.40;;
15171;SDS011;7686;52.184;9.280;2023-01-08T12:54:22;2.50;;;1.42;;
15171;SDS011;7686;52.184;9.280;2023-01-08T12:57:16;3.58;;;1.65;;
15171;SDS011;7686;52.184;9.280;2023-01-08T13:02:50;3.58;;;1.48;;
15171;SDS011;7686;52.184;9.280;2023-01-08T13:07:55;4.78;;;1.55;;
15171;SDS011;7686;52.184;9.280;2023-01-08T13:10:31;4.28;;;1.40;;
15171;SDS011;7686;52.184;9.280;2023-01-08T13:13:02;2.95;;;1.42;;
15171;SDS011;7686;52.184;9.280;2023-01-08T13:15:31;1.83;;;1.23;;
15171;SDS011;7686;52.184;9.280;2023-01-08T13:18:17;2.95;;;1.35;;
15171;SDS011;7686;52.184;9.280;2023-01-08T13:20:55;3.28;;;1.60;;
15171;SDS011;7686;52.184;9.280;2023-01-08T13:23:24;2.40;;;1.38;;
15171;SDS011;7686;52.184;9.280;2023-01-08T13:25:56;3.35;;;1.35;;
15171;SDS011;7686;52.184;9.280;2023-01-08T13:31:37;2.85;;;1.70;;
15171;SDS011;7686;52.184;9.280;2023-01-08T13:33:54;1.98;;;1.10;;
15171;SDS011;7686;52.184;9.280;2023-01-08T13:36:22;2.15;;;1.40;;
15171;SDS011;7686;52.184;9.280;2023-01-08T13:44:16;2.70;;;1.33;;
15171;SDS011;7686;52.184;9.280;2023-01-08T13:46:53;2.55;;;1.23;;
15171;SDS011;7686;52.184;9.280;2023-01-08T13:49:35;2.65;;;1.30;;
15171;SDS011;7686;52.184;9.280;2023-01-08T13:52:30;2.38;;;1.40;;
15171;SDS011;7686;52.184;9.280;2023-01-08T13:55:11;3.20;;;1.27;;
15171;SDS011;7686;52.184;9.280;2023-01-08T13:57:43;2.33;;;1.50;;
15171;SDS011;7686;52.184;9.280;2023-01-08T14:00:17;1.77;;;1.08;;
15171;SDS011;7686;52.184;9.280;2023-01-08T14:02:48;1.77;;;1.30;;
15171;SDS011;7686;52.184;9.280;2023-01-08T14:07:53;3.00;;;1.40;;
15171;SDS011;7686;52.184;9.280;2023-01-08T14:10:20;2.13;;;1.20;;
15171;SDS011;7686;52.184;9.280;2023-01-08T14:12:47;1.48;;;1.00;;
15171;SDS011;7686;52.184;9.280;2023-01-08T14:15:24;2.88;;;1.17;;
15171;SDS011;7686;52.184;9.280;2023-01-08T14:17:53;2.20;;;1.20;;
15171;SDS011;7686;52.184;9.280;2023-01-08T14:20:31;2.28;;;1.25;;
15171;SDS011;7686;52.184;9.280;2023-01-08T14:23:01;2.95;;;1.25;;
15171;SDS011;7686;52.184;9.280;2023-01-08T14:25:33;1.58;;;1.10;;
15171;SDS011;7686;52.184;9.280;2023-01-08T14:28:01;1.80;;;1.30;;
15171;SDS011;7686;52.184;9.280;2023-01-08T14:30:31;2.10;;;1.33;;
15171;SDS011;7686;52.184;9.280;2023-01-08T14:32:58;2.47;;;1.10;;
15171;SDS011;7686;52.184;9.280;2023-01-08T14:35:28;2.08;;;1.10;;
15171;SDS011;7686;52.184;9.280;2023-01-08T14:37:58;2.08;;;1.20;;
15171;SDS011;7686;52.184;9.280;2023-01-08T14:40:37;2.53;;;1.25;;
15171;SDS011;7686;52.184;9.280;2023-01-08T14:43:07;2.20;;;1.30;;
15171;SDS011;7686;52.184;9.280;2023-01-08T14:45:37;2.20;;;1.15;;
15171;SDS011;7686;52.184;9.280;2023-01-08T14:48:23;2.60;;;1.13;;
15171;SDS011;7686;52.184;9.280;2023-01-08T14:51:03;2.35;;;1.27;;
15171;SDS011;7686;52.184;9.280;2023-01-08T14:53:34;2.10;;;1.20;;
15171;SDS011;7686;52.184;9.280;2023-01-08T14:56:03;1.67;;;1.13;;
15171;SDS011;7686;52.184;9.280;2023-01-08T14:58:36;2.25;;;1.10;;
15171;SDS011;7686;52.184;9.280;2023-01-08T15:01:06;2.00;;;1.00;;
15171;SDS011;7686;52.184;9.280;2023-01-08T15:03:40;1.52;;;1.00;;
15171;SDS011;7686;52.184;9.280;2023-01-08T15:06:09;1.95;;;1.10;;
15171;SDS011;7686;52.184;9.280;2023-01-08T15:08:37;2.60;;;1.25;;
15171;SDS011;7686;52.184;9.280;2023-01-08T15:11:27;1.80;;;1.00;;
15171;SDS011;7686;52.184;9.280;2023-01-08T15:13:56;1.98;;;1.02;;
15171;SDS011;7686;52.184;9.280;2023-01-08T15:21:21;2.05;;;1.00;;
15171;SDS011;7686;52.184;9.280;2023-01-08T15:23:49;2.97;;;1.00;;
15171;SDS011;7686;52.184;9.280;2023-01-08T15:26:19;1.80;;;1.20;;
15171;SDS011;7686;52.184;9.280;2023-01-08T15:34:06;2.45;;;1.10;;
15171;SDS011;7686;52.184;9.280;2023-01-08T15:36:33;3.83;;;1.15;;
15171;SDS011;7686;52.184;9.280;2023-01-08T15:39:00;2.70;;;1.10;;
15171;SDS011;7686;52.184;9.280;2023-01-08T15:41:34;1.75;;;0.80;;
15171;SDS011;7686;52.184;9.280;2023-01-08T15:44:20;2.22;;;1.10;;
15171;SDS011;7686;52.184;9.280;2023-01-08T15:46:47;1.70;;;1.08;;
15171;SDS011;7686;52.184;9.280;2023-01-08T15:49:14;1.55;;;0.90;;
15171;SDS011;7686;52.184;9.280;2023-01-08T15:51:42;2.85;;;1.05;;
15171;SDS011;7686;52.184;9.280;2023-01-08T15:54:11;3.72;;;1.00;;
15171;SDS011;7686;52.184;9.280;2023-01-08T15:56:38;1.30;;;0.95;;
15171;SDS011;7686;52.184;9.280;2023-01-08T15:59:05;3.35;;;1.10;;
15171;SDS011;7686;52.184;9.280;2023-01-08T16:01:33;3.00;;;1.30;;
15171;SDS011;7686;52.184;9.280;2023-01-08T16:04:00;3.25;;;1.10;;
15171;SDS011;7686;52.184;9.280;2023-01-08T16:06:26;3.08;;;1.10;;
15171;SDS011;7686;52.184;9.280;2023-01-08T16:08:53;1.90;;;0.90;;
15171;SDS011;7686;52.184;9.280;2023-01-08T16:11:22;2.63;;;0.88;;
15171;SDS011;7686;52.184;9.280;2023-01-08T16:13:49;2.83;;;0.95;;
15171;SDS011;7686;52.184;9.280;2023-01-08T16:16:16;1.40;;;0.90;;
15171;SDS011;7686;52.184;9.280;2023-01-08T16:18:43;5.28;;;0.90;;
15171;SDS011;7686;52.184;9.280;2023-01-08T16:21:10;3.15;;;1.10;;
15171;SDS011;7686;52.184;9.280;2023-01-08T16:23:37;1.83;;;1.02;;
15171;SDS011;7686;52.184;9.280;2023-01-08T16:26:10;3.13;;;0.88;;
15171;SDS011;7686;52.184;9.280;2023-01-08T16:28:38;1.30;;;0.88;;
15171;SDS011;7686;52.184;9.280;2023-01-08T16:31:06;1.55;;;0.80;;
15171;SDS011;7686;52.184;9.280;2023-01-08T16:33:33;1.48;;;0.93;;
15171;SDS011;7686;52.184;9.280;2023-01-08T16:36:04;2.03;;;0.90;;